Adams Mills, Ohio
Current Conditions -  °F | °C
As of 12:53 AM on Monday 22 Dec 2014 (Local Time) from KZZV Reporting Station
Haze Haze  
Wind Chill: 25°   Ceiling: Unl
Heat Index: 25°   Visibility: 6mi
Dew Point: 20°   Wind: 0mph
Humidity: 81%   Direction: NA
Pressure: 30.14"   Gusts: NA
Location:  40.1482°N, 82.0354°W
Report Text: KZZV 220553Z AUTO 00000KT 6SM HZ CLR M04/M07 A3014 RMK AO2 SLP216 T10391067 11017 21044 56016 $
Loading
Personal Weather Stations






























Interactive Weather Map New forecast layout! Learn more

10-Day Weather Forecast

Advertisements
Track Severe Weather on mobile